Time;durP1;ratioP1;P1;durP2;ratioP2;P2;SDS_P1;SDS_P2;PMS_P1;PMS_P2;Temp;Humidity;BMP_temperature;BMP_pressure;BME280_temperature;BME280_humidity;BME280_pressure;Samples;Min_cycle;Max_cycle;Signal;HPM_P1;HPM_P2
2022/08/02 00:01:34;;;;;;;3.95;1.70;;;;;;;15.93;65.45;101802.19;5022494;28;20029;-53
2022/08/02 00:03:59;;;;;;;3.05;1.83;;;;;;;15.85;65.33;101812.97;5020566;28;20025;-55
2022/08/02 00:06:25;;;;;;;4.28;1.60;;;;;;;15.77;65.23;101811.22;5019162;28;20044;-54
2022/08/02 00:08:50;;;;;;;3.83;1.90;;;;;;;15.74;65.24;101804.38;5021803;28;20025;-53
2022/08/02 00:11:16;;;;;;;2.67;1.75;;;;;;;15.65;64.93;101816.16;5018392;28;20021;-54
2022/08/02 00:13:41;;;;;;;2.95;1.88;;;;;;;15.65;64.85;101818.03;5017749;28;20030;-55
2022/08/02 00:16:06;;;;;;;3.85;1.95;;;;;;;15.63;65.13;101804.81;5022030;28;20044;-54
2022/08/02 00:18:31;;;;;;;4.82;1.65;;;;;;;15.78;64.90;101802.16;5023059;28;20029;-54
2022/08/02 00:20:57;;;;;;;4.57;1.75;;;;;;;15.75;64.95;101800.69;5019335;28;20116;-51
2022/08/02 00:23:22;;;;;;;4.55;1.65;;;;;;;15.95;64.86;101817.06;5018837;28;20108;-54
2022/08/02 00:25:48;;;;;;;4.78;1.75;;;;;;;15.98;63.69;101814.03;5018052;28;20113;-52
2022/08/02 00:28:13;;;;;;;4.70;1.40;;;;;;;16.00;62.74;101813.84;4999505;28;20083;-52
2022/08/02 00:30:39;;;;;;;3.22;1.70;;;;;;;16.03;62.75;101811.63;5022778;28;20035;-54
2022/08/02 00:33:04;;;;;;;3.50;1.48;;;;;;;16.11;62.81;101803.50;5019541;28;20482;-51
2022/08/02 00:35:30;;;;;;;7.50;1.50;;;;;;;16.16;61.77;101808.31;5023927;28;20407;-54
2022/08/02 00:37:56;;;;;;;4.13;1.77;;;;;;;16.09;61.36;101804.69;5024335;28;20103;-54
2022/08/02 00:40:22;;;;;;;4.65;1.90;;;;;;;16.03;62.19;101811.63;5022332;28;20037;-53
2022/08/02 00:43:00;;;;;;;5.85;1.75;;;;;;;15.98;63.36;101799.81;5022415;28;20029;-54
2022/08/02 00:45:25;;;;;;;2.60;1.50;;;;;;;15.99;62.31;101794.25;5021837;28;20665;-55
2022/08/02 00:47:50;;;;;;;2.30;1.13;;;;;;;16.03;61.14;101786.69;5024850;28;20116;-51
2022/08/02 00:50:16;;;;;;;3.17;1.20;;;;;;;16.05;60.94;101785.47;5023853;28;20095;-54
2022/08/02 00:52:41;;;;;;;3.92;1.30;;;;;;;16.08;60.53;101785.13;5023248;28;20607;-54
2022/08/02 00:55:07;;;;;;;3.83;1.55;;;;;;;16.10;59.53;101785.75;5026271;28;20029;-54
2022/08/02 00:57:32;;;;;;;6.93;1.60;;;;;;;16.13;58.64;101776.53;5024012;28;20554;-55
2022/08/02 00:59:57;;;;;;;3.53;1.10;;;;;;;16.17;58.22;101785.84;5027339;28;20021;-53
2022/08/02 01:02:23;;;;;;;5.45;1.60;;;;;;;16.19;58.59;101780.31;5019273;28;20033;-53
2022/08/02 01:04:48;;;;;;;2.85;1.25;;;;;;;16.24;58.25;101783.28;5021123;28;20057;-55
2022/08/02 01:07:14;;;;;;;3.28;1.45;;;;;;;16.27;57.87;101786.44;5023786;28;20029;-54
2022/08/02 01:09:44;;;;;;;6.32;1.90;;;;;;;16.26;57.45;101792.81;5024546;28;20044;-53
2022/08/02 01:12:10;;;;;;;5.50;1.70;;;;;;;16.24;57.59;101792.16;5019701;28;20098;-54
2022/08/02 01:14:36;;;;;;;6.53;1.90;;;;;;;16.24;57.63;101791.34;5024623;28;20059;-54
2022/08/02 01:17:11;;;;;;;6.93;1.70;;;;;;;16.25;57.56;101791.16;5021270;28;20044;-54
2022/08/02 01:19:50;;;;;;;6.25;2.10;;;;;;;16.25;57.59;101793.81;5023918;28;20028;-55
2022/08/02 01:22:39;;;;;;;6.10;1.63;;;;;;;16.08;58.99;101797.69;5019579;28;20091;-55
2022/08/02 01:25:42;;;;;;;5.65;1.92;;;;;;;16.01;59.57;101791.41;5023688;28;20105;-55
2022/08/02 01:28:31;;;;;;;5.72;1.60;;;;;;;16.01;60.09;101788.72;5019686;28;20060;-54
2022/08/02 01:31:16;;;;;;;;;;;;;;;16.13;59.95;101787.25;5023337;28;20225;-52
2022/08/02 01:33:47;;;;;;;4.07;1.92;;;;;;;16.04;59.63;101785.66;5004182;28;19955;-51
2022/08/02 01:36:17;;;;;;;3.88;1.80;;;;;;;15.83;60.92;101782.84;5019688;28;20028;-54
2022/08/02 01:38:47;;;;;;;5.22;1.98;;;;;;;15.65;61.52;101786.72;5024490;28;20029;-51
2022/08/02 01:41:18;;;;;;;6.00;2.10;;;;;;;15.58;62.00;101768.81;5024656;28;20029;-54
2022/08/02 01:43:45;;;;;;;6.18;2.50;;;;;;;15.68;61.34;101770.28;5020132;28;20052;-54
2022/08/02 01:46:14;;;;;;;6.22;2.30;;;;;;;15.73;60.82;101775.91;5022001;28;20532;-54
2022/08/02 01:48:41;;;;;;;3.85;2.22;;;;;;;15.83;60.70;101777.50;5020858;28;20562;-55
2022/08/02 01:51:11;;;;;;;8.95;2.70;;;;;;;15.83;60.58;101762.25;5019202;28;20040;-53
2022/08/02 01:53:38;;;;;;;9.27;2.70;;;;;;;15.85;60.16;101762.06;5018123;28;20022;-55
2022/08/02 01:56:06;;;;;;;9.23;2.45;;;;;;;15.86;60.33;101766.41;5022410;28;20033;-55
2022/08/02 01:58:36;;;;;;;5.82;2.53;;;;;;;15.88;60.41;101764.38;5021846;28;20026;-52
2022/08/02 02:01:05;;;;;;;7.13;2.30;;;;;;;15.88;60.17;101772.44;5022009;28;20033;-54
2022/08/02 02:03:33;;;;;;;5.32;2.45;;;;;;;15.83;60.70;101756.91;5018813;28;20085;-54
2022/08/02 02:05:59;;;;;;;8.82;2.75;;;;;;;15.86;60.60;101761.06;5022022;28;20064;-54
2022/08/02 02:08:35;;;;;;;8.15;2.25;;;;;;;15.88;60.32;101761.72;5021739;28;20063;-53
2022/08/02 02:11:02;;;;;;;5.13;2.60;;;;;;;15.88;60.61;101754.50;5023164;28;20140;-54
2022/08/02 02:13:28;;;;;;;4.38;2.53;;;;;;;15.89;60.81;101748.13;5022346;28;20037;-53
2022/08/02 02:15:55;;;;;;;6.45;2.60;;;;;;;15.88;60.99;101753.66;5020020;28;20037;-54
2022/08/02 02:18:23;;;;;;;3.28;2.38;;;;;;;15.86;60.45;101753.03;5022091;28;20029;-52
2022/08/02 02:20:49;;;;;;;9.18;3.20;;;;;;;15.80;60.82;101742.03;5011816;28;20483;-54
2022/08/02 02:23:16;;;;;;;7.50;2.90;;;;;;;15.79;60.97;101736.84;5024189;28;20036;-53
2022/08/02 02:25:41;;;;;;;6.82;2.72;;;;;;;15.80;61.00;101733.16;5022232;28;20048;-53
2022/08/02 02:28:12;;;;;;;6.72;2.80;;;;;;;15.82;61.06;101725.78;5022172;28;20494;-53
2022/08/02 02:30:44;;;;;;;8.30;2.83;;;;;;;15.82;61.45;101728.47;5019821;28;20038;-53
2022/08/02 02:33:12;;;;;;;6.60;2.80;;;;;;;15.80;61.23;101731.31;5016387;28;20033;-54
2022/08/02 02:35:39;;;;;;;5.60;2.90;;;;;;;15.80;61.17;101730.50;5019688;28;20029;-53
2022/08/02 02:38:10;;;;;;;8.13;2.95;;;;;;;15.75;61.13;101728.38;5019390;28;20112;-52
2022/08/02 02:40:36;;;;;;;8.50;2.88;;;;;;;15.77;61.10;101731.69;5021464;28;20033;-53
2022/08/02 02:43:04;;;;;;;6.60;2.70;;;;;;;15.72;61.36;101722.53;5019761;28;20025;-54
2022/08/02 02:45:31;;;;;;;6.45;2.75;;;;;;;15.67;61.29;101728.44;5020576;28;20061;-54
2022/08/02 02:47:59;;;;;;;6.03;3.10;;;;;;;15.53;61.63;101734.56;5016642;28;20048;-57
2022/08/02 02:50:25;;;;;;;6.57;2.85;;;;;;;15.42;62.28;101730.47;5022415;28;20126;-55
2022/08/02 02:52:52;;;;;;;10.40;3.05;;;;;;;15.46;62.69;101725.59;5020748;28;20288;-57
2022/08/02 02:55:18;;;;;;;7.25;2.83;;;;;;;15.52;62.78;101730.22;5022086;28;20044;-56
2022/08/02 02:57:44;;;;;;;7.28;2.78;;;;;;;15.50;62.67;101725.06;5019080;28;20026;-57
2022/08/02 03:00:13;;;;;;;5.43;2.80;;;;;;;15.47;62.46;101732.63;5022002;28;20060;-56
2022/08/02 03:02:41;;;;;;;9.88;2.92;;;;;;;15.55;62.83;101713.78;5017387;28;20037;-57
2022/08/02 03:05:08;;;;;;;12.85;3.33;;;;;;;15.56;62.55;101711.94;5019669;28;20033;-56
2022/08/02 03:07:34;;;;;;;11.68;3.25;;;;;;;15.52;62.48;101716.84;5019969;28;20112;-57
2022/08/02 03:10:00;;;;;;;7.43;3.03;;;;;;;15.48;62.45;101718.22;5017392;28;20030;-57
2022/08/02 03:12:26;;;;;;;5.10;2.92;;;;;;;15.37;62.90;101699.94;5018906;28;20453;-57
2022/08/02 03:14:53;;;;;;;6.47;2.83;;;;;;;15.49;62.66;101722.56;5020446;28;20065;-56
2022/08/02 03:17:18;;;;;;;5.22;2.95;;;;;;;15.31;63.11;101722.88;5021776;28;20507;-56
2022/08/02 03:19:44;;;;;;;3.55;2.83;;;;;;;15.31;63.42;101722.03;5022672;28;20033;-56
2022/08/02 03:22:10;;;;;;;7.95;2.92;;;;;;;15.30;63.85;101717.69;5018263;28;20021;-56
2022/08/02 03:24:35;;;;;;;8.60;3.15;;;;;;;15.32;63.75;101721.03;5017105;28;20578;-56
2022/08/02 03:27:00;;;;;;;6.50;3.03;;;;;;;15.28;63.88;101725.06;5022098;28;20491;-56
2022/08/02 03:29:26;;;;;;;8.05;3.40;;;;;;;15.30;64.00;101725.72;5019803;28;20032;-56
2022/08/02 03:31:52;;;;;;;5.57;3.20;;;;;;;15.28;64.61;101717.88;5020426;28;20025;-56
2022/08/02 03:34:17;;;;;;;6.43;3.50;;;;;;;15.29;64.77;101719.53;5017859;28;20030;-56
2022/08/02 03:36:49;;;;;;;6.80;3.35;;;;;;;15.24;64.84;101716.56;5028021;28;20029;-56
2022/08/02 03:39:16;;;;;;;8.10;3.25;;;;;;;15.28;65.19;101720.56;5029078;28;20531;-56
2022/08/02 03:41:42;;;;;;;8.85;3.50;;;;;;;15.24;64.68;101700.53;5028027;28;20041;-55
2022/08/02 03:44:09;;;;;;;9.00;3.45;;;;;;;15.34;64.84;101698.44;5027709;28;20028;-55
2022/08/02 03:46:38;;;;;;;5.15;3.03;;;;;;;15.32;64.69;101697.75;5028877;28;20020;-56
2022/08/02 03:49:04;;;;;;;7.57;3.80;;;;;;;15.38;64.80;101699.75;5029387;28;20102;-57
2022/08/02 03:51:29;;;;;;;8.63;4.10;;;;;;;15.32;64.47;101686.22;5029252;28;20078;-56
2022/08/02 03:53:55;;;;;;;7.78;4.07;;;;;;;15.39;64.26;101693.38;5025750;28;20041;-55
2022/08/02 03:56:21;;;;;;;7.03;3.78;;;;;;;15.38;64.52;101697.06;5027571;28;20033;-54
2022/08/02 03:58:46;;;;;;;7.90;3.72;;;;;;;15.37;64.52;101694.56;5029485;28;20110;-56
2022/08/02 04:01:11;;;;;;;8.82;3.60;;;;;;;15.37;64.14;101694.56;5026321;28;20104;-56
2022/08/02 04:03:37;;;;;;;11.60;3.75;;;;;;;15.36;64.55;101684.88;5025327;28;20865;-57
2022/08/02 04:06:02;;;;;;;8.48;3.83;;;;;;;15.35;64.14;101685.91;5023932;28;20067;-55
2022/08/02 04:08:27;;;;;;;7.32;3.63;;;;;;;15.37;64.14;101691.91;5027881;28;20043;-56
2022/08/02 04:13:40;;;;;;;12.80;3.88;;;;;;;15.34;64.31;101689.59;5024136;28;20598;-56
2022/08/02 04:16:14;;;;;;;9.18;3.75;;;;;;;15.34;64.32;101684.22;5020132;28;20036;-56
2022/08/02 04:18:54;;;;;;;8.00;3.70;;;;;;;15.32;64.22;101687.06;5018688;28;20037;-56
2022/08/02 04:21:23;;;;;;;6.68;4.00;;;;;;;15.32;64.39;101689.75;5021098;28;20033;-56
2022/08/02 04:23:49;;;;;;;12.18;4.72;;;;;;;15.36;64.66;101691.06;5022074;28;20021;-55
2022/08/02 04:26:15;;;;;;;7.68;3.72;;;;;;;15.33;64.71;101691.44;5023056;28;20037;-57
2022/08/02 04:28:42;;;;;;;6.80;3.80;;;;;;;15.33;64.63;101693.28;5023801;28;20376;-55
2022/08/02 04:31:08;;;;;;;9.40;3.70;;;;;;;15.30;64.77;101685.59;5027414;28;20402;-55
2022/08/02 04:33:35;;;;;;;6.50;3.47;;;;;;;15.31;65.05;101688.06;5021546;28;20479;-55
2022/08/02 04:36:01;;;;;;;7.95;3.92;;;;;;;15.31;64.99;101701.47;5021185;28;20084;-56
2022/08/02 04:38:26;;;;;;;7.32;4.35;;;;;;;15.31;65.07;101700.63;5018081;28;20025;-56
2022/08/02 04:40:54;;;;;;;7.88;3.92;;;;;;;15.32;64.94;101697.75;5020809;28;20033;-56
2022/08/02 04:43:20;;;;;;;9.45;4.20;;;;;;;15.29;65.22;101690.09;5020192;28;20096;-56
2022/08/02 04:45:48;;;;;;;7.25;3.88;;;;;;;15.30;65.50;101685.59;5021170;28;20034;-55
2022/08/02 04:48:14;;;;;;;7.70;3.87;;;;;;;15.31;65.75;101692.59;5026992;28;20025;-55
2022/08/02 04:50:39;;;;;;;8.45;4.00;;;;;;;15.33;65.41;101685.25;5030409;28;20619;-56
2022/08/02 04:53:04;;;;;;;8.93;4.43;;;;;;;15.34;65.25;101692.25;5021115;28;20319;-56
2022/08/02 04:55:30;;;;;;;8.80;4.32;;;;;;;15.34;65.84;101681.56;5020734;28;20108;-56
2022/08/02 04:57:56;;;;;;;6.32;4.20;;;;;;;15.33;65.65;101685.25;5025163;28;20033;-56
2022/08/02 05:00:23;;;;;;;8.40;4.68;;;;;;;15.32;65.78;101686.22;5025643;28;20646;-54
2022/08/02 05:02:49;;;;;;;6.40;4.28;;;;;;;15.33;65.92;101679.91;5018648;28;20040;-55
2022/08/02 05:05:14;;;;;;;10.45;4.75;;;;;;;15.31;65.83;101676.53;5018113;28;20029;-55
2022/08/02 05:07:39;;;;;;;9.52;4.68;;;;;;;15.35;66.07;101678.69;5023145;28;20030;-53
2022/08/02 05:10:05;;;;;;;9.60;5.07;;;;;;;15.35;66.03;101678.69;5023908;28;20021;-57
2022/08/02 05:12:30;;;;;;;9.75;5.10;;;;;;;15.38;66.34;101683.69;5016390;28;20079;-55
2022/08/02 05:14:55;;;;;;;8.18;4.85;;;;;;;15.41;66.51;101674.47;5023308;28;20033;-54
2022/08/02 05:17:21;;;;;;;8.73;5.05;;;;;;;15.48;66.74;101683.41;5025397;28;20037;-56
2022/08/02 05:19:46;;;;;;;11.60;5.07;;;;;;;15.53;66.43;101681.00;5022725;28;20029;-56
2022/08/02 05:22:11;;;;;;;9.73;4.90;;;;;;;15.62;66.86;101684.50;5029127;28;20029;-54
2022/08/02 05:24:36;;;;;;;9.43;5.38;;;;;;;15.64;66.46;101677.13;5029060;28;20044;-54
2022/08/02 05:27:02;;;;;;;10.55;5.57;;;;;;;15.65;67.00;101674.25;5018777;28;20021;-55
2022/08/02 05:29:27;;;;;;;10.88;5.65;;;;;;;15.67;67.22;101672.22;5018828;28;20486;-55
2022/08/02 05:31:53;;;;;;;10.27;5.38;;;;;;;15.74;67.09;101667.78;5027122;28;20025;-57
2022/08/02 05:34:18;;;;;;;9.10;5.05;;;;;;;15.80;67.63;101668.88;5030981;28;20486;-56
2022/08/02 05:36:44;;;;;;;8.60;5.78;;;;;;;15.84;67.28;101667.50;5022875;28;20025;-52
2022/08/02 05:39:09;;;;;;;9.02;5.88;;;;;;;15.89;67.69;101653.53;5033972;28;20056;-56
2022/08/02 05:41:34;;;;;;;11.50;5.82;;;;;;;15.95;67.88;101658.19;5023615;28;20120;-55
2022/08/02 05:44:00;;;;;;;11.02;6.63;;;;;;;16.02;67.71;101656.41;5031186;28;20024;-53
2022/08/02 05:46:26;;;;;;;12.38;6.82;;;;;;;16.18;68.21;101661.56;5032297;28;20025;-56
2022/08/02 05:48:51;;;;;;;13.35;6.80;;;;;;;16.22;68.07;101670.06;5035132;28;20051;-57
2022/08/02 05:51:35;;;;;;;11.48;6.60;;;;;;;16.29;67.93;101674.50;5035313;28;20021;-54
2022/08/02 05:54:16;;;;;;;10.73;7.05;;;;;;;16.40;68.51;101683.88;5028019;28;20030;-56
2022/08/02 05:57:09;;;;;;;9.82;6.90;;;;;;;16.53;68.77;101688.59;5027407;28;20039;-56
2022/08/02 06:00:01;;;;;;;11.82;7.10;;;;;;;16.61;68.95;101689.31;5022489;28;20494;-57
2022/08/02 06:02:31;;;;;;;11.27;7.32;;;;;;;16.65;68.50;101684.38;5023624;28;20022;-55
2022/08/02 06:05:12;;;;;;;11.60;7.57;;;;;;;16.77;68.61;101688.28;5030110;28;20483;-55
2022/08/02 06:07:41;;;;;;;12.57;7.60;;;;;;;16.80;68.50;101690.56;5030167;28;20029;-56
2022/08/02 06:10:07;;;;;;;16.25;7.80;;;;;;;16.83;69.11;101686.69;5035989;28;20064;-54
2022/08/02 06:12:40;;;;;;;13.35;7.72;;;;;;;16.83;69.04;101690.19;5034367;28;20029;-56
2022/08/02 06:15:05;;;;;;;12.68;7.90;;;;;;;16.84;68.84;101686.50;5031319;28;20029;-54
2022/08/02 06:17:31;;;;;;;19.45;9.00;;;;;;;16.84;69.01;101689.16;5031283;28;20033;-56
2022/08/02 06:19:58;;;;;;;12.55;8.10;;;;;;;16.82;69.25;101691.22;5025740;28;20075;-56
2022/08/02 06:22:26;;;;;;;14.77;8.70;;;;;;;16.80;69.70;101690.56;5032883;28;20017;-55
2022/08/02 06:24:53;;;;;;;14.05;8.73;;;;;;;16.79;70.02;101688.91;5034360;28;20379;-56
2022/08/02 06:27:19;;;;;;;13.15;8.50;;;;;;;16.83;70.49;101692.88;5029365;28;20100;-56
2022/08/02 06:29:47;;;;;;;14.05;8.98;;;;;;;16.82;70.72;101687.72;5028972;28;20032;-56
2022/08/02 06:32:17;;;;;;;13.07;8.90;;;;;;;16.82;71.02;101683.16;5024037;28;20036;-57
2022/08/02 06:34:42;;;;;;;14.70;9.40;;;;;;;16.84;71.50;101675.75;5021780;28;20482;-55
2022/08/02 06:37:14;;;;;;;14.98;9.23;;;;;;;16.91;71.34;101683.88;5024511;28;20106;-53
2022/08/02 06:39:48;;;;;;;14.23;8.93;;;;;;;16.95;71.65;101671.72;5023978;28;20168;-55
2022/08/02 06:42:20;;;;;;;15.88;10.40;;;;;;;17.04;72.00;101682.13;5024470;28;20114;-56
2022/08/02 06:44:45;;;;;;;14.40;9.20;;;;;;;17.14;72.19;101678.31;5027282;28;20092;-56
2022/08/02 06:47:11;;;;;;;15.68;9.68;;;;;;;17.22;72.24;101681.69;5022791;28;20112;-57
2022/08/02 06:49:36;;;;;;;13.82;9.88;;;;;;;17.30;72.76;101678.00;5021524;28;20109;-57
2022/08/02 06:52:03;;;;;;;17.08;9.93;;;;;;;17.42;72.76;101681.84;5027599;28;20553;-56
2022/08/02 06:54:28;;;;;;;15.07;9.90;;;;;;;17.53;73.00;101675.94;5021896;28;20092;-57
2022/08/02 06:56:53;;;;;;;17.23;10.00;;;;;;;17.64;73.45;101678.09;5023164;28;20029;-57
2022/08/02 06:59:18;;;;;;;16.30;10.27;;;;;;;17.74;73.28;101672.38;5018705;28;20029;-57
2022/08/02 07:01:44;;;;;;;14.98;10.20;;;;;;;17.85;73.14;101669.13;5018873;28;20033;-57
2022/08/02 07:04:09;;;;;;;15.40;10.18;;;;;;;17.94;73.53;101667.13;5022586;28;20022;-58
2022/08/02 07:06:35;;;;;;;16.15;10.18;;;;;;;18.06;74.01;101670.91;5026079;28;20024;-57
2022/08/02 07:09:00;;;;;;;24.27;12.73;;;;;;;18.17;74.15;101664.13;5033203;28;20021;-57
2022/08/02 07:11:25;;;;;;;17.00;11.20;;;;;;;18.19;74.03;101659.38;5031825;28;20464;-57
2022/08/02 07:13:50;;;;;;;17.92;11.70;;;;;;;18.36;73.97;101667.91;5025011;28;20092;-57
2022/08/02 07:16:16;;;;;;;20.85;12.38;;;;;;;18.46;73.98;101671.06;5033524;28;20029;-57
2022/08/02 07:18:41;;;;;;;17.02;12.10;;;;;;;18.56;74.34;101668.81;5028945;28;20025;-57
2022/08/02 07:21:06;;;;;;;17.05;12.25;;;;;;;18.61;74.32;101666.34;5032116;28;20038;-58
2022/08/02 07:23:32;;;;;;;18.05;12.68;;;;;;;18.66;73.76;101661.22;5026956;28;20025;-57
2022/08/02 07:25:58;;;;;;;19.33;12.32;;;;;;;18.75;74.03;101665.38;5031382;28;20367;-57
2022/08/02 07:28:23;;;;;;;21.55;11.77;;;;;;;18.78;73.96;101667.63;5028311;28;20017;-57
2022/08/02 07:30:48;;;;;;;16.05;11.82;;;;;;;18.84;73.48;101658.78;5027041;28;20059;-58
2022/08/02 07:33:14;;;;;;;17.30;11.85;;;;;;;18.87;73.88;101666.44;5021054;28;20364;-57
2022/08/02 07:35:40;;;;;;;20.92;12.32;;;;;;;18.88;73.70;101657.31;5028310;28;20026;-57
2022/08/02 07:38:06;;;;;;;18.02;12.45;;;;;;;18.94;73.44;101652.16;5022322;28;20029;-57
2022/08/02 07:40:31;;;;;;;17.10;11.50;;;;;;;18.96;73.77;101648.22;5026581;28;20394;-57
2022/08/02 07:42:57;;;;;;;15.48;11.10;;;;;;;19.12;73.46;101657.75;5027372;28;20725;-56
2022/08/02 07:45:23;;;;;;;19.20;11.95;;;;;;;19.22;73.65;101660.03;5036715;28;20399;-57
2022/08/02 07:47:49;;;;;;;15.73;10.45;;;;;;;19.40;73.87;101673.72;5031398;28;20579;-57
2022/08/02 07:50:16;;;;;;;14.25;9.82;;;;;;;19.48;73.00;101671.63;5029882;28;20029;-57
2022/08/02 07:52:43;;;;;;;18.25;10.77;;;;;;;19.58;72.74;101676.59;5028098;28;20029;-56
2022/08/02 07:55:09;;;;;;;14.93;10.73;;;;;;;19.63;72.27;101674.09;5024805;28;20061;-58
2022/08/02 07:57:35;;;;;;;12.43;9.45;;;;;;;19.74;72.47;101673.47;5033764;28;20080;-57
2022/08/02 08:00:02;;;;;;;14.90;9.35;;;;;;;19.73;71.99;101658.34;5027858;28;20442;-57
2022/08/02 08:02:27;;;;;;;14.80;9.27;;;;;;;19.82;71.70;101658.94;5030412;28;20052;-57
2022/08/02 08:04:52;;;;;;;12.63;8.88;;;;;;;19.98;71.59;101661.19;5033676;28;20580;-56
2022/08/02 08:07:18;;;;;;;12.02;7.55;;;;;;;20.05;71.21;101670.06;5036103;28;20009;-57
2022/08/02 08:09:44;;;;;;;11.90;7.72;;;;;;;20.16;71.42;101659.66;5033176;28;20446;-58
2022/08/02 08:12:10;;;;;;;11.07;7.47;;;;;;;20.27;71.01;101654.44;5031837;28;20028;-57
2022/08/02 08:14:37;;;;;;;8.70;7.00;;;;;;;20.37;70.62;101662.06;5030964;28;20029;-57
2022/08/02 08:17:03;;;;;;;7.75;6.18;;;;;;;20.46;69.54;101657.25;5031696;28;20121;-56
2022/08/02 08:19:28;;;;;;;7.30;5.95;;;;;;;20.53;69.47;101656.19;5029218;28;20108;-56
2022/08/02 08:21:53;;;;;;;8.68;5.80;;;;;;;20.66;69.54;101656.09;5033811;28;20116;-56
2022/08/02 08:24:19;;;;;;;10.00;6.22;;;;;;;20.76;69.59;101650.22;5031192;28;20674;-57
2022/08/02 08:26:44;;;;;;;8.00;5.05;;;;;;;20.88;69.20;101653.06;5039558;28;20029;-57
2022/08/02 08:29:09;;;;;;;9.10;5.15;;;;;;;21.00;68.59;101654.81;5033089;28;20042;-58
2022/08/02 08:31:35;;;;;;;9.70;5.10;;;;;;;21.03;67.66;101656.25;5027516;28;20543;-57
2022/08/02 08:34:01;;;;;;;7.85;4.53;;;;;;;21.12;67.44;101652.25;5028682;28;20053;-57
2022/08/02 08:36:26;;;;;;;7.03;4.28;;;;;;;21.27;67.18;101655.47;5022061;28;20041;-57
2022/08/02 08:38:51;;;;;;;9.27;4.60;;;;;;;21.32;66.32;101642.13;5022895;28;20029;-57
2022/08/02 08:41:18;;;;;;;6.25;3.33;;;;;;;21.40;65.44;101659.94;5024731;28;20026;-58
2022/08/02 08:43:45;;;;;;;5.35;3.45;;;;;;;21.45;64.47;101656.56;5027907;28;20032;-57
2022/08/02 08:46:17;;;;;;;7.07;3.25;;;;;;;21.51;64.27;101651.09;5025939;28;20038;-57
2022/08/02 08:48:45;;;;;;;4.15;2.60;;;;;;;21.63;63.83;101657.41;5025135;28;20568;-57
2022/08/02 08:51:15;;;;;;;4.43;2.72;;;;;;;21.72;62.31;101657.97;5027272;28;20113;-57
2022/08/02 08:53:45;;;;;;;4.03;2.00;;;;;;;21.83;61.42;101661.78;5022608;28;20068;-57
2022/08/02 08:56:11;;;;;;;5.88;2.38;;;;;;;21.90;60.59;101657.13;5025049;28;20499;-56
2022/08/02 08:58:38;;;;;;;4.13;2.40;;;;;;;21.90;60.49;101644.41;5028943;28;20037;-56
2022/08/02 09:01:06;;;;;;;3.28;2.20;;;;;;;21.97;60.02;101644.34;5023000;28;20017;-54
2022/08/02 09:03:31;;;;;;;3.50;2.22;;;;;;;22.02;60.93;101654.50;5029457;28;20037;-57
2022/08/02 09:05:57;;;;;;;4.35;2.10;;;;;;;22.09;60.02;101658.81;5031484;28;20025;-56
2022/08/02 09:08:24;;;;;;;1.80;1.70;;;;;;;22.15;58.13;101659.75;5028557;28;20671;-58
2022/08/02 09:10:49;;;;;;;3.33;1.63;;;;;;;22.19;55.48;101663.66;5029761;28;20029;-58
2022/08/02 09:13:28;;;;;;;4.90;1.65;;;;;;;22.30;54.42;101662.09;5027974;28;20116;-57
2022/08/02 09:15:58;;;;;;;2.30;1.65;;;;;;;22.35;53.13;101654.94;5026188;28;20098;-57
2022/08/02 09:18:30;;;;;;;4.15;1.70;;;;;;;22.55;53.59;101660.06;5017884;28;20029;-59
2022/08/02 09:21:01;;;;;;;9.75;2.10;;;;;;;22.71;52.38;101658.59;5022577;28;20049;-57
2022/08/02 09:23:33;;;;;;;3.17;1.52;;;;;;;22.75;52.07;101649.78;5023644;28;20071;-59
2022/08/02 09:26:02;;;;;;;2.25;1.73;;;;;;;22.99;52.22;101649.84;5008817;28;20028;-58
2022/08/02 09:28:30;;;;;;;2.92;1.50;;;;;;;23.19;52.83;101639.53;5030615;28;20425;-57
2022/08/02 09:31:01;;;;;;;4.00;1.80;;;;;;;23.39;52.67;101653.53;5023611;28;20061;-56
2022/08/02 09:33:27;;;;;;;2.50;1.75;;;;;;;23.37;50.14;101650.22;5021564;28;20033;-58
2022/08/02 09:36:07;;;;;;;2.65;1.80;;;;;;;23.40;50.65;101646.22;5023879;28;20383;-57
2022/08/02 09:38:34;;;;;;;4.32;2.17;;;;;;;23.47;51.82;101652.38;5019504;28;20087;-57
2022/08/02 09:41:00;;;;;;;3.15;1.80;;;;;;;23.47;51.11;101646.94;5024929;28;20030;-56
2022/08/02 09:43:38;;;;;;;4.40;1.90;;;;;;;23.58;51.23;101654.28;5024137;28;20075;-58
2022/08/02 09:46:19;;;;;;;2.88;1.70;;;;;;;23.64;51.25;101656.03;5017176;28;20771;-57
2022/08/02 09:48:54;;;;;;;2.92;1.70;;;;;;;23.71;50.38;101661.34;5024606;28;20100;-58
2022/08/02 09:51:29;;;;;;;3.60;1.67;;;;;;;23.69;49.48;101664.28;5023807;28;20537;-56
2022/08/02 09:53:57;;;;;;;2.13;1.40;;;;;;;23.77;49.43;101636.81;5018897;28;20461;-56
2022/08/02 09:56:25;;;;;;;3.47;1.55;;;;;;;23.95;48.35;101668.38;5018422;28;20029;-57
2022/08/02 09:58:52;;;;;;;7.78;1.67;;;;;;;24.05;47.35;101663.16;5031002;28;20048;-57
2022/08/02 10:01:20;;;;;;;1.98;1.40;;;;;;;24.13;47.03;101664.69;5026158;28;20065;-56
2022/08/02 10:03:58;;;;;;;2.58;1.45;;;;;;;24.12;46.03;101662.22;5025454;28;20044;-58
2022/08/02 10:06:23;;;;;;;1.80;1.60;;;;;;;24.18;45.56;101653.09;5023913;28;20375;-57
2022/08/02 10:08:52;;;;;;;2.35;1.35;;;;;;;24.22;44.55;101649.66;5027558;28;20052;-57
2022/08/02 10:11:18;;;;;;;1.40;1.10;;;;;;;24.40;45.27;101646.78;5027430;28;20034;-57
2022/08/02 10:13:43;;;;;;;1.85;1.20;;;;;;;24.62;44.81;101659.69;5025049;28;20044;-56
2022/08/02 10:16:09;;;;;;;2.13;1.25;;;;;;;24.66;43.26;101652.69;5031084;28;20037;-56
2022/08/02 10:18:34;;;;;;;3.45;1.35;;;;;;;24.76;43.26;101658.28;5025806;28;20033;-57
2022/08/02 10:21:01;;;;;;;3.22;1.33;;;;;;;24.67;42.77;101652.44;5031859;28;20565;-58
2022/08/02 10:23:30;;;;;;;1.98;1.20;;;;;;;24.66;42.34;101655.41;5022755;28;20082;-57
2022/08/02 10:25:56;;;;;;;2.80;1.20;;;;;;;24.88;43.19;101644.66;5031805;28;20036;-57
2022/08/02 10:28:30;;;;;;;4.10;1.38;;;;;;;24.92;42.81;101637.66;5030615;28;20045;-57
2022/08/02 10:30:58;;;;;;;2.97;1.10;;;;;;;24.82;41.87;101653.78;5027478;28;20501;-58
2022/08/02 10:33:25;;;;;;;1.77;1.30;;;;;;;24.90;41.54;101643.34;5023699;28;20033;-57
2022/08/02 10:35:53;;;;;;;2.90;1.23;;;;;;;24.94;41.13;101636.34;5028992;28;20064;-57
2022/08/02 10:38:19;;;;;;;3.33;1.27;;;;;;;24.94;41.16;101633.63;5024742;28;20033;-56
2022/08/02 10:40:51;;;;;;;2.13;1.20;;;;;;;24.90;40.88;101646.06;5027961;28;20749;-58
2022/08/02 10:43:34;;;;;;;2.42;1.05;;;;;;;24.89;41.18;101644.41;5028758;28;20024;-57
2022/08/02 10:46:21;;;;;;;1.55;1.17;;;;;;;24.94;41.20;101638.22;5022314;28;20037;-57
2022/08/02 10:49:11;;;;;;;3.08;1.15;;;;;;;25.10;42.24;101642.84;5027599;28;20046;-58
2022/08/02 10:51:56;;;;;;;2.15;1.10;;;;;;;25.03;40.76;101636.78;5029255;28;20028;-57
2022/08/02 10:54:24;;;;;;;3.17;1.00;;;;;;;25.12;41.17;101634.47;5028640;28;20683;-58
2022/08/02 10:56:51;;;;;;;2.65;1.17;;;;;;;25.22;41.15;101643.63;5030742;28;20037;-57
2022/08/02 10:59:29;;;;;;;2.85;1.00;;;;;;;25.29;39.72;101641.53;5030623;28;20842;-57
2022/08/02 11:02:03;;;;;;;1.45;1.00;;;;;;;25.44;40.37;101642.81;5022231;28;20394;-58
2022/08/02 11:04:40;;;;;;;1.42;1.08;;;;;;;25.55;39.69;101645.44;5032230;28;20021;-57
2022/08/02 11:07:10;;;;;;;3.05;0.90;;;;;;;25.64;39.17;101638.50;5024270;28;20099;-57
2022/08/02 11:09:36;;;;;;;3.10;1.00;;;;;;;25.67;38.99;101642.66;5023373;28;20030;-58
2022/08/02 11:12:02;;;;;;;1.45;0.90;;;;;;;25.70;38.44;101627.72;5023507;28;20022;-56
2022/08/02 11:14:27;;;;;;;1.75;1.00;;;;;;;25.77;38.92;101636.53;5025775;28;20025;-57
2022/08/02 11:16:55;;;;;;;3.17;1.00;;;;;;;25.92;38.91;101642.97;5028325;28;20029;-58
2022/08/02 11:19:22;;;;;;;2.67;0.93;;;;;;;26.10;38.81;101636.41;5020543;28;20026;-57
2022/08/02 11:22:04;;;;;;;3.63;1.10;;;;;;;26.19;38.50;101639.47;5025116;28;20160;-57
2022/08/02 11:24:37;;;;;;;1.48;0.90;;;;;;;26.35;37.71;101633.16;5025049;28;20022;-57
2022/08/02 11:27:04;;;;;;;1.35;1.10;;;;;;;26.37;37.09;101624.75;5020771;28;20488;-58
2022/08/02 11:29:50;;;;;;;1.60;1.02;;;;;;;26.31;36.79;101642.91;5023801;28;20029;-58